createdAt,value
2022-11-16T00:00:58.176Z,10.0
2022-11-16T00:06:04.387Z,10.0
2022-11-16T00:11:10.604Z,11.0
2022-11-16T00:16:16.809Z,11.0
2022-11-16T00:21:23.014Z,11.0
2022-11-16T00:26:29.231Z,11.0
2022-11-16T00:31:35.451Z,11.0
2022-11-16T00:36:41.648Z,11.0
2022-11-16T00:41:47.861Z,12.0
2022-11-16T00:46:53.109Z,12.0
2022-11-16T00:51:59.302Z,12.0
2022-11-16T00:57:04.554Z,12.0
2022-11-16T01:02:10.757Z,12.0
2022-11-16T01:07:17.003Z,13.0
2022-11-16T01:12:23.186Z,13.0
2022-11-16T01:17:29.387Z,13.0
2022-11-16T01:22:35.593Z,12.0
2022-11-16T01:27:41.803Z,12.0
2022-11-16T01:32:48.007Z,12.0
2022-11-16T01:37:54.225Z,10.5
2022-11-16T01:43:00.447Z,10.0
2022-11-16T01:48:06.702Z,9.0
2022-11-16T01:53:12.864Z,8.0
2022-11-16T01:58:19.066Z,8.0
2022-11-16T02:03:25.287Z,8.0
2022-11-16T02:08:31.862Z,9.0
2022-11-16T02:13:37.697Z,9.0
2022-11-16T02:18:43.911Z,9.0
2022-11-16T02:23:50.129Z,9.0
2022-11-16T02:28:56.329Z,10.0
2022-11-16T02:34:02.546Z,10.0
2022-11-16T02:39:08.753Z,11.0
2022-11-16T02:44:13.986Z,11.5
2022-11-16T02:49:20.196Z,11.0
2022-11-16T02:54:26.405Z,12.0
2022-11-16T02:59:32.617Z,11.0
2022-11-16T03:04:38.828Z,11.0
2022-11-16T03:09:45.051Z,11.0
2022-11-16T03:14:51.329Z,11.0
2022-11-16T03:19:57.459Z,11.0
2022-11-16T03:25:03.674Z,11.0
2022-11-16T03:30:09.886Z,11.0
2022-11-16T03:35:16.092Z,10.0
2022-11-16T03:40:22.304Z,11.0
2022-11-16T03:45:28.509Z,10.0
2022-11-16T03:50:34.724Z,10.0
2022-11-16T03:55:44.493Z,10.0
2022-11-16T04:00:47.153Z,10.0
2022-11-16T04:05:53.357Z,9.0
2022-11-16T04:10:59.579Z,8.0
2022-11-16T04:16:05.783Z,8.0
2022-11-16T04:21:11.994Z,8.0
2022-11-16T04:26:18.227Z,8.0
2022-11-16T04:31:23.443Z,8.0
2022-11-16T04:36:29.653Z,7.0
2022-11-16T04:41:35.867Z,6.0
2022-11-16T04:46:42.079Z,4.0
2022-11-16T04:51:48.294Z,3.0
2022-11-16T04:56:54.494Z,3.0
2022-11-16T05:02:00.712Z,3.0
2022-11-16T05:07:06.944Z,2.0
2022-11-16T05:12:13.119Z,2.0
2022-11-16T05:17:19.332Z,2.0
2022-11-16T05:22:25.537Z,2.0
2022-11-16T05:27:31.762Z,2.0
2022-11-16T05:32:37.958Z,2.0
2022-11-16T05:37:44.158Z,2.0
2022-11-16T05:42:50.368Z,2.0
2022-11-16T05:47:56.577Z,2.0
2022-11-16T05:53:02.819Z,2.0
2022-11-16T05:58:08.995Z,2.0
2022-11-16T06:03:15.349Z,2.0
2022-11-16T06:08:21.413Z,2.0
2022-11-16T06:13:27.626Z,2.0
2022-11-16T06:18:33.088Z,2.0
2022-11-16T06:23:39.070Z,2.0
2022-11-16T06:28:44.309Z,3.0
2022-11-16T06:33:50.506Z,2.0
2022-11-16T06:38:56.715Z,3.0
2022-11-16T06:44:01.952Z,3.0
2022-11-16T06:49:08.160Z,3.0
2022-11-16T06:54:13.394Z,3.0
2022-11-16T06:59:19.605Z,3.0
2022-11-16T07:04:25.816Z,3.0
2022-11-16T07:09:32.021Z,3.0
2022-11-16T07:14:38.231Z,3.0
2022-11-16T07:19:44.459Z,4.0
2022-11-16T07:24:50.652Z,4.0
2022-11-16T07:29:56.851Z,4.0
2022-11-16T07:35:03.074Z,4.0
2022-11-16T07:40:09.279Z,4.0
2022-11-16T07:45:15.477Z,4.0
2022-11-16T07:50:21.681Z,4.0
2022-11-16T07:55:27.895Z,4.0
2022-11-16T08:00:34.110Z,4.0
2022-11-16T08:05:40.341Z,4.0
2022-11-16T08:10:46.518Z,4.0
2022-11-16T08:15:52.726Z,4.0
2022-11-16T08:20:58.936Z,3.0
2022-11-16T08:26:05.146Z,3.0
2022-11-16T08:31:11.394Z,3.0
2022-11-16T08:36:17.581Z,3.0
2022-11-16T08:41:22.802Z,3.0
2022-11-16T08:46:29.014Z,3.0
2022-11-16T08:51:35.212Z,3.0
2022-11-16T08:56:41.414Z,3.0
2022-11-16T09:01:47.723Z,3.0
2022-11-16T09:06:53.867Z,3.0
2022-11-16T09:12:00.094Z,3.0
2022-11-16T09:17:06.252Z,3.0
2022-11-16T09:22:12.453Z,3.0
2022-11-16T09:27:18.666Z,2.0
2022-11-16T09:32:25.010Z,3.0
2022-11-16T09:37:31.137Z,2.0
2022-11-16T09:42:37.286Z,2.0
2022-11-16T09:47:43.499Z,2.0
2022-11-16T09:52:49.707Z,2.0
2022-11-16T09:57:55.914Z,2.0
2022-11-16T10:03:02.158Z,3.0
2022-11-16T10:08:08.335Z,3.0
2022-11-16T10:13:14.537Z,3.0
2022-11-16T10:18:20.743Z,3.0
2022-11-16T10:23:26.956Z,4.0
2022-11-16T10:28:32.189Z,3.0
2022-11-16T10:33:38.396Z,3.0
2022-11-16T10:38:43.632Z,3.0
2022-11-16T10:43:49.843Z,2.5
2022-11-16T10:48:56.058Z,3.0
2022-11-16T10:54:02.266Z,3.0
2022-11-16T10:59:08.473Z,2.5
2022-11-16T11:04:14.679Z,3.0
2022-11-16T11:09:20.886Z,2.0
2022-11-16T11:14:27.105Z,2.0
2022-11-16T11:19:33.304Z,2.0
2022-11-16T11:24:45.074Z,2.0
2022-11-16T11:29:45.723Z,2.0
2022-11-16T11:34:51.943Z,2.0
2022-11-16T11:39:58.163Z,2.0
2022-11-16T11:45:04.378Z,2.0
2022-11-16T11:50:10.573Z,2.0
2022-11-16T11:55:16.777Z,2.0
2022-11-16T12:00:22.992Z,2.0
2022-11-16T12:05:29.208Z,2.0
2022-11-16T12:10:35.420Z,2.0
2022-11-16T12:15:41.634Z,2.0
2022-11-16T12:20:47.850Z,2.0
2022-11-16T12:25:53.094Z,1.0
2022-11-16T12:30:59.304Z,2.0
2022-11-16T12:36:05.524Z,2.0
2022-11-16T12:41:11.733Z,1.0
2022-11-16T12:46:17.954Z,2.0
2022-11-16T12:51:27.534Z,1.0
2022-11-16T12:56:30.388Z,1.0
2022-11-16T13:01:36.633Z,1.0
2022-11-16T13:06:42.801Z,1.0
2022-11-16T13:11:49.022Z,1.0
2022-11-16T13:16:55.213Z,1.0
2022-11-16T13:22:01.422Z,1.0
2022-11-16T13:27:07.642Z,1.0
2022-11-16T13:32:14.148Z,1.0
2022-11-16T13:37:20.066Z,1.0
2022-11-16T13:42:26.277Z,1.0
2022-11-16T13:47:32.510Z,1.0
2022-11-16T13:53:09.257Z,1.0
2022-11-16T13:57:44.922Z,1.0
2022-11-16T14:02:51.138Z,1.0
2022-11-16T14:07:57.349Z,1.0
2022-11-16T14:13:02.582Z,1.0
2022-11-16T14:18:08.805Z,1.5
2022-11-16T14:23:14.043Z,2.0
2022-11-16T14:28:20.265Z,1.0
2022-11-16T14:33:26.464Z,1.0
2022-11-16T14:38:32.671Z,2.0
2022-11-16T14:43:38.904Z,1.0
2022-11-16T14:48:45.111Z,2.0
2022-11-16T14:53:51.319Z,2.0
2022-11-16T14:58:57.530Z,1.0
2022-11-16T15:04:03.746Z,1.0
2022-11-16T15:09:10.008Z,1.0
2022-11-16T15:14:16.172Z,1.0
2022-11-16T15:19:22.384Z,1.0
2022-11-16T15:24:31.311Z,2.0
2022-11-16T15:29:34.808Z,2.0
2022-11-16T15:34:41.016Z,2.0
2022-11-16T15:39:47.230Z,1.0
2022-11-16T15:44:53.429Z,2.0
2022-11-16T15:49:59.641Z,2.0
2022-11-16T15:55:05.860Z,1.5
2022-11-16T16:00:12.060Z,2.0
2022-11-16T16:05:22.735Z,2.0
2022-11-16T16:10:23.498Z,2.0
2022-11-16T16:15:29.731Z,2.0
2022-11-16T16:20:34.940Z,2.0
2022-11-16T16:25:44.703Z,2.0
2022-11-16T16:30:46.395Z,3.0
2022-11-16T16:35:52.605Z,4.0
2022-11-16T16:40:58.806Z,3.0
2022-11-16T16:46:05.026Z,2.0
2022-11-16T16:51:11.222Z,2.0
2022-11-16T16:56:17.437Z,2.0
2022-11-16T17:01:23.697Z,2.0
2022-11-16T17:06:28.862Z,2.0
2022-11-16T17:11:35.076Z,2.0
2022-11-16T17:16:41.278Z,2.0
2022-11-16T17:21:47.484Z,4.0
2022-11-16T17:26:53.692Z,3.0
2022-11-16T17:31:59.902Z,5.0
2022-11-16T17:37:06.112Z,2.0
2022-11-16T17:42:12.325Z,2.0
2022-11-16T17:47:18.525Z,2.0
2022-11-16T17:52:24.745Z,2.0
2022-11-16T17:57:30.941Z,2.0
2022-11-16T18:02:37.151Z,2.0
2022-11-16T18:07:43.356Z,2.0
2022-11-16T18:12:49.574Z,2.0
2022-11-16T18:17:54.811Z,2.0
2022-11-16T18:23:01.028Z,2.0
2022-11-16T18:28:07.215Z,2.0
2022-11-16T18:33:13.428Z,2.0
2022-11-16T18:38:19.637Z,2.0
2022-11-16T18:43:25.847Z,2.0
2022-11-16T18:48:32.052Z,2.0
2022-11-16T18:53:38.642Z,2.0
2022-11-16T18:58:51.935Z,3.0
2022-11-16T19:03:50.687Z,2.0
2022-11-16T19:08:56.898Z,2.0
2022-11-16T19:14:03.086Z,2.0
2022-11-16T19:19:09.303Z,3.0
2022-11-16T19:24:15.502Z,3.0
2022-11-16T19:29:21.712Z,3.0
2022-11-16T19:34:33.156Z,2.0
2022-11-16T19:39:34.129Z,2.0
2022-11-16T19:44:40.339Z,2.0
2022-11-16T19:49:46.539Z,2.0
2022-11-16T19:54:52.750Z,2.0
2022-11-16T19:59:58.954Z,2.0
2022-11-16T20:05:04.195Z,2.0
2022-11-16T20:10:10.407Z,2.5
2022-11-16T20:15:16.608Z,2.0
2022-11-16T20:20:22.817Z,2.0
2022-11-16T20:25:29.043Z,3.0
2022-11-16T20:30:35.237Z,2.0
2022-11-16T20:35:41.442Z,2.0
2022-11-16T20:40:47.651Z,2.0
2022-11-16T20:45:53.861Z,2.0
2022-11-16T20:51:00.079Z,2.0
2022-11-16T20:56:06.293Z,2.0
2022-11-16T21:01:12.595Z,2.0
2022-11-16T21:06:18.689Z,2.0
2022-11-16T21:11:24.894Z,3.0
2022-11-16T21:16:31.117Z,2.0
2022-11-16T21:21:37.303Z,2.0
2022-11-16T21:26:43.517Z,2.0
2022-11-16T21:31:49.727Z,2.0
2022-11-16T21:36:55.944Z,2.0
2022-11-16T21:42:02.153Z,2.0
2022-11-16T21:47:08.350Z,2.0
2022-11-16T21:52:13.593Z,2.0
2022-11-16T21:57:19.795Z,2.0
2022-11-16T22:02:25.062Z,2.0
2022-11-16T22:07:31.281Z,2.0
2022-11-16T22:12:36.474Z,3.0
2022-11-16T22:17:42.685Z,2.0
2022-11-16T22:22:48.897Z,2.0
2022-11-16T22:33:01.313Z,3.0
2022-11-16T22:38:07.520Z,2.0
2022-11-16T22:43:13.734Z,3.0
2022-11-16T22:48:19.947Z,3.0
2022-11-16T22:53:26.143Z,3.0
2022-11-16T22:58:32.360Z,3.0
2022-11-16T23:03:38.980Z,3.0
2022-11-16T23:08:44.769Z,3.0
2022-11-16T23:13:50.979Z,3.0
2022-11-16T23:18:57.184Z,3.0
2022-11-16T23:24:03.389Z,3.0
2022-11-16T23:29:09.603Z,3.5
2022-11-16T23:34:15.807Z,4.0
2022-11-16T23:39:22.009Z,4.0
2022-11-16T23:44:28.233Z,4.0
2022-11-16T23:49:34.473Z,4.0
2022-11-16T23:54:40.641Z,4.0
2022-11-16T23:59:45.875Z,3.0
